sensor_id;sensor_type;location;lat;lon;timestamp;temperature;humidity
17956;DHT22;27666;51.498;11.966;2022-09-09T00:00:13;16.60;99.90
17956;DHT22;27666;51.498;11.966;2022-09-09T00:03:04;16.60;99.90
17956;DHT22;27666;51.498;11.966;2022-09-09T00:06:01;16.60;99.90
17956;DHT22;27666;51.498;11.966;2022-09-09T00:08:57;16.60;99.90
17956;DHT22;27666;51.498;11.966;2022-09-09T00:11:49;16.70;99.90
17956;DHT22;27666;51.498;11.966;2022-09-09T00:14:45;16.60;99.90
17956;DHT22;27666;51.498;11.966;2022-09-09T00:17:38;16.60;99.90
17956;DHT22;27666;51.498;11.966;2022-09-09T00:20:31;16.70;99.90
17956;DHT22;27666;51.498;11.966;2022-09-09T00:23:24;16.60;99.90
17956;DHT22;27666;51.498;11.966;2022-09-09T00:26:16;16.60;99.90
17956;DHT22;27666;51.498;11.966;2022-09-09T00:29:12;16.70;99.90
17956;DHT22;27666;51.498;11.966;2022-09-09T00:32:07;16.60;99.90
17956;DHT22;27666;51.498;11.966;2022-09-09T00:35:02;16.60;99.90
17956;DHT22;27666;51.498;11.966;2022-09-09T00:37:50;16.60;99.90
17956;DHT22;27666;51.498;11.966;2022-09-09T00:40:47;16.50;99.90
17956;DHT22;27666;51.498;11.966;2022-09-09T00:43:36;16.60;99.90
17956;DHT22;27666;51.498;11.966;2022-09-09T00:49:59;16.50;99.90
17956;DHT22;27666;51.498;11.966;2022-09-09T00:52:51;16.50;99.90
17956;DHT22;27666;51.498;11.966;2022-09-09T00:55:46;16.50;99.90
17956;DHT22;27666;51.498;11.966;2022-09-09T00:58:34;16.50;99.90
17956;DHT22;27666;51.498;11.966;2022-09-09T01:01:21;16.50;99.90
17956;DHT22;27666;51.498;11.966;2022-09-09T01:04:10;16.40;99.90
17956;DHT22;27666;51.498;11.966;2022-09-09T01:07:06;16.50;99.90
17956;DHT22;27666;51.498;11.966;2022-09-09T01:09:57;16.40;99.90
17956;DHT22;27666;51.498;11.966;2022-09-09T01:12:47;16.40;99.90
17956;DHT22;27666;51.498;11.966;2022-09-09T01:15:34;16.40;99.90
17956;DHT22;27666;51.498;11.966;2022-09-09T01:18:23;16.40;99.90
17956;DHT22;27666;51.498;11.966;2022-09-09T01:21:18;16.30;99.90
17956;DHT22;27666;51.498;11.966;2022-09-09T01:24:19;16.30;99.90
17956;DHT22;27666;51.498;11.966;2022-09-09T01:27:08;16.30;99.90
17956;DHT22;27666;51.498;11.966;2022-09-09T01:29:56;16.30;99.90
17956;DHT22;27666;51.498;11.966;2022-09-09T01:32:43;16.40;99.90
17956;DHT22;27666;51.498;11.966;2022-09-09T01:35:40;16.30;99.90
17956;DHT22;27666;51.498;11.966;2022-09-09T01:38:30;16.40;99.90
17956;DHT22;27666;51.498;11.966;2022-09-09T01:41:17;16.30;99.90
17956;DHT22;27666;51.498;11.966;2022-09-09T01:44:06;16.30;99.90
17956;DHT22;27666;51.498;11.966;2022-09-09T01:46:54;16.30;99.90
17956;DHT22;27666;51.498;11.966;2022-09-09T01:49:40;16.30;99.90
17956;DHT22;27666;51.498;11.966;2022-09-09T01:52:27;16.30;99.90
17956;DHT22;27666;51.498;11.966;2022-09-09T01:55:14;16.10;99.90
17956;DHT22;27666;51.498;11.966;2022-09-09T01:58:11;16.20;99.90
17956;DHT22;27666;51.498;11.966;2022-09-09T02:01:08;16.10;99.90
17956;DHT22;27666;51.498;11.966;2022-09-09T02:04:03;16.20;99.90
17956;DHT22;27666;51.498;11.966;2022-09-09T02:06:54;16.10;99.90
17956;DHT22;27666;51.498;11.966;2022-09-09T02:09:44;16.20;99.90
17956;DHT22;27666;51.498;11.966;2022-09-09T02:12:33;16.20;99.90
17956;DHT22;27666;51.498;11.966;2022-09-09T02:15:23;16.10;99.90
17956;DHT22;27666;51.498;11.966;2022-09-09T02:18:16;16.10;99.90
17956;DHT22;27666;51.498;11.966;2022-09-09T02:21:04;16.20;99.90
17956;DHT22;27666;51.498;11.966;2022-09-09T02:23:52;16.20;99.90
17956;DHT22;27666;51.498;11.966;2022-09-09T02:26:43;16.20;99.90
17956;DHT22;27666;51.498;11.966;2022-09-09T02:29:34;16.20;99.90
17956;DHT22;27666;51.498;11.966;2022-09-09T02:32:22;16.20;99.90
17956;DHT22;27666;51.498;11.966;2022-09-09T02:35:12;16.20;99.90
17956;DHT22;27666;51.498;11.966;2022-09-09T02:38:02;16.20;99.90
17956;DHT22;27666;51.498;11.966;2022-09-09T02:40:49;16.30;99.90
17956;DHT22;27666;51.498;11.966;2022-09-09T02:43:36;16.30;99.90
17956;DHT22;27666;51.498;11.966;2022-09-09T02:46:34;16.30;99.90
17956;DHT22;27666;51.498;11.966;2022-09-09T02:49:30;16.40;99.90
17956;DHT22;27666;51.498;11.966;2022-09-09T02:52:26;16.30;99.90
17956;DHT22;27666;51.498;11.966;2022-09-09T02:55:18;16.30;99.90
17956;DHT22;27666;51.498;11.966;2022-09-09T02:58:09;16.30;99.90
17956;DHT22;27666;51.498;11.966;2022-09-09T03:00:57;16.20;99.90
17956;DHT22;27666;51.498;11.966;2022-09-09T03:03:46;16.20;99.90
17956;DHT22;27666;51.498;11.966;2022-09-09T03:06:33;16.20;99.90
17956;DHT22;27666;51.498;11.966;2022-09-09T03:09:21;16.20;99.90
17956;DHT22;27666;51.498;11.966;2022-09-09T03:12:08;16.10;99.90
17956;DHT22;27666;51.498;11.966;2022-09-09T03:14:56;16.00;99.90
17956;DHT22;27666;51.498;11.966;2022-09-09T03:17:42;16.10;99.90
17956;DHT22;27666;51.498;11.966;2022-09-09T03:20:30;16.10;99.90
17956;DHT22;27666;51.498;11.966;2022-09-09T03:23:16;16.20;99.90
17956;DHT22;27666;51.498;11.966;2022-09-09T03:26:04;16.10;99.90
17956;DHT22;27666;51.498;11.966;2022-09-09T03:28:50;16.10;99.90
17956;DHT22;27666;51.498;11.966;2022-09-09T03:31:39;16.10;99.90
17956;DHT22;27666;51.498;11.966;2022-09-09T03:34:25;16.20;99.90
17956;DHT22;27666;51.498;11.966;2022-09-09T03:37:12;16.20;99.90
17956;DHT22;27666;51.498;11.966;2022-09-09T03:39:58;16.10;99.90
17956;DHT22;27666;51.498;11.966;2022-09-09T03:42:46;16.20;99.90
17956;DHT22;27666;51.498;11.966;2022-09-09T03:45:33;16.20;99.90
17956;DHT22;27666;51.498;11.966;2022-09-09T03:48:19;16.20;99.90
17956;DHT22;27666;51.498;11.966;2022-09-09T03:51:05;16.10;99.90
17956;DHT22;27666;51.498;11.966;2022-09-09T03:53:52;16.20;99.90
17956;DHT22;27666;51.498;11.966;2022-09-09T03:56:43;16.20;99.90
17956;DHT22;27666;51.498;11.966;2022-09-09T03:59:30;16.20;99.90
17956;DHT22;27666;51.498;11.966;2022-09-09T04:02:17;16.20;99.90
17956;DHT22;27666;51.498;11.966;2022-09-09T04:05:04;16.20;99.90
17956;DHT22;27666;51.498;11.966;2022-09-09T04:07:52;16.10;99.90
17956;DHT22;27666;51.498;11.966;2022-09-09T04:10:39;16.10;99.90
17956;DHT22;27666;51.498;11.966;2022-09-09T04:13:27;16.20;99.90
17956;DHT22;27666;51.498;11.966;2022-09-09T04:16:14;16.10;99.90
17956;DHT22;27666;51.498;11.966;2022-09-09T04:19:01;16.10;99.90
17956;DHT22;27666;51.498;11.966;2022-09-09T04:21:49;16.20;99.90
17956;DHT22;27666;51.498;11.966;2022-09-09T04:24:36;16.20;99.90
17956;DHT22;27666;51.498;11.966;2022-09-09T04:27:23;16.20;99.90
17956;DHT22;27666;51.498;11.966;2022-09-09T04:30:10;16.30;99.90
17956;DHT22;27666;51.498;11.966;2022-09-09T04:32:58;16.30;99.90
17956;DHT22;27666;51.498;11.966;2022-09-09T04:35:46;16.30;99.90
17956;DHT22;27666;51.498;11.966;2022-09-09T04:38:33;16.30;99.90
17956;DHT22;27666;51.498;11.966;2022-09-09T04:41:20;16.40;99.90
17956;DHT22;27666;51.498;11.966;2022-09-09T04:44:06;16.40;99.90
17956;DHT22;27666;51.498;11.966;2022-09-09T04:46:52;16.50;99.90
17956;DHT22;27666;51.498;11.966;2022-09-09T04:49:40;16.50;99.90
17956;DHT22;27666;51.498;11.966;2022-09-09T04:52:26;16.60;99.90
17956;DHT22;27666;51.498;11.966;2022-09-09T04:55:13;16.50;99.90
17956;DHT22;27666;51.498;11.966;2022-09-09T04:58:03;16.60;99.90
17956;DHT22;27666;51.498;11.966;2022-09-09T05:00:50;16.60;99.90
17956;DHT22;27666;51.498;11.966;2022-09-09T05:03:37;16.70;99.90
17956;DHT22;27666;51.498;11.966;2022-09-09T05:06:25;16.60;99.90
17956;DHT22;27666;51.498;11.966;2022-09-09T05:09:11;16.60;99.90
17956;DHT22;27666;51.498;11.966;2022-09-09T05:11:57;16.60;99.90
17956;DHT22;27666;51.498;11.966;2022-09-09T05:14:44;16.60;99.90
17956;DHT22;27666;51.498;11.966;2022-09-09T05:17:30;16.60;99.90
17956;DHT22;27666;51.498;11.966;2022-09-09T05:20:17;16.70;99.90
17956;DHT22;27666;51.498;11.966;2022-09-09T05:23:05;16.60;99.90
17956;DHT22;27666;51.498;11.966;2022-09-09T05:25:56;16.70;99.90
17956;DHT22;27666;51.498;11.966;2022-09-09T05:28:42;16.60;99.90
17956;DHT22;27666;51.498;11.966;2022-09-09T05:31:30;16.60;99.90
17956;DHT22;27666;51.498;11.966;2022-09-09T05:34:16;16.70;99.90
17956;DHT22;27666;51.498;11.966;2022-09-09T05:37:03;16.80;99.90
17956;DHT22;27666;51.498;11.966;2022-09-09T05:39:51;16.70;99.90
17956;DHT22;27666;51.498;11.966;2022-09-09T05:42:38;16.80;99.90
17956;DHT22;27666;51.498;11.966;2022-09-09T05:45:25;16.70;99.90
17956;DHT22;27666;51.498;11.966;2022-09-09T05:48:11;16.80;99.90
17956;DHT22;27666;51.498;11.966;2022-09-09T05:50:58;16.80;99.90
17956;DHT22;27666;51.498;11.966;2022-09-09T05:53:45;16.90;99.90
17956;DHT22;27666;51.498;11.966;2022-09-09T05:56:33;17.00;99.90
17956;DHT22;27666;51.498;11.966;2022-09-09T05:59:20;17.00;99.90
17956;DHT22;27666;51.498;11.966;2022-09-09T06:02:08;17.10;99.90
17956;DHT22;27666;51.498;11.966;2022-09-09T06:04:55;17.20;99.90
17956;DHT22;27666;51.498;11.966;2022-09-09T06:07:44;17.10;99.90
17956;DHT22;27666;51.498;11.966;2022-09-09T06:10:31;17.10;99.90
17956;DHT22;27666;51.498;11.966;2022-09-09T06:13:19;17.10;99.90
17956;DHT22;27666;51.498;11.966;2022-09-09T06:16:05;17.20;99.90
17956;DHT22;27666;51.498;11.966;2022-09-09T06:18:52;17.10;99.90
17956;DHT22;27666;51.498;11.966;2022-09-09T06:21:39;17.20;99.90
17956;DHT22;27666;51.498;11.966;2022-09-09T06:24:27;17.20;99.90
17956;DHT22;27666;51.498;11.966;2022-09-09T06:27:15;17.40;99.90
17956;DHT22;27666;51.498;11.966;2022-09-09T06:30:03;17.50;99.90
17956;DHT22;27666;51.498;11.966;2022-09-09T06:32:49;17.60;99.90
17956;DHT22;27666;51.498;11.966;2022-09-09T06:35:36;17.50;99.90
17956;DHT22;27666;51.498;11.966;2022-09-09T06:38:22;17.60;99.90
17956;DHT22;27666;51.498;11.966;2022-09-09T06:41:11;17.70;99.90
17956;DHT22;27666;51.498;11.966;2022-09-09T06:43:58;17.70;99.90
17956;DHT22;27666;51.498;11.966;2022-09-09T06:46:46;17.70;99.90
17956;DHT22;27666;51.498;11.966;2022-09-09T06:49:33;17.80;99.90
17956;DHT22;27666;51.498;11.966;2022-09-09T06:52:20;17.90;99.90
17956;DHT22;27666;51.498;11.966;2022-09-09T06:55:07;18.00;99.90
17956;DHT22;27666;51.498;11.966;2022-09-09T06:57:53;18.20;99.90
17956;DHT22;27666;51.498;11.966;2022-09-09T07:00:39;18.50;99.90
17956;DHT22;27666;51.498;11.966;2022-09-09T07:03:27;18.80;99.90
17956;DHT22;27666;51.498;11.966;2022-09-09T07:06:15;19.30;99.90
17956;DHT22;27666;51.498;11.966;2022-09-09T07:09:04;19.80;99.90
17956;DHT22;27666;51.498;11.966;2022-09-09T07:11:51;20.40;99.90
17956;DHT22;27666;51.498;11.966;2022-09-09T07:14:38;20.90;99.90
17956;DHT22;27666;51.498;11.966;2022-09-09T07:17:25;21.20;99.90
17956;DHT22;27666;51.498;11.966;2022-09-09T07:20:12;21.40;99.90
17956;DHT22;27666;51.498;11.966;2022-09-09T07:22:59;21.40;99.90
17956;DHT22;27666;51.498;11.966;2022-09-09T07:25:46;21.20;99.90
17956;DHT22;27666;51.498;11.966;2022-09-09T07:28:32;21.00;99.90
17956;DHT22;27666;51.498;11.966;2022-09-09T07:31:22;20.90;99.90
17956;DHT22;27666;51.498;11.966;2022-09-09T07:34:09;20.90;99.90
17956;DHT22;27666;51.498;11.966;2022-09-09T07:36:57;21.20;99.90
17956;DHT22;27666;51.498;11.966;2022-09-09T07:39:43;21.70;99.90
17956;DHT22;27666;51.498;11.966;2022-09-09T07:42:30;22.40;99.90
17956;DHT22;27666;51.498;11.966;2022-09-09T07:45:16;22.90;99.90
17956;DHT22;27666;51.498;11.966;2022-09-09T07:48:03;23.10;99.90
17956;DHT22;27666;51.498;11.966;2022-09-09T07:50:50;23.50;99.90
17956;DHT22;27666;51.498;11.966;2022-09-09T07:53:38;23.80;99.90
17956;DHT22;27666;51.498;11.966;2022-09-09T07:56:26;24.10;99.90
17956;DHT22;27666;51.498;11.966;2022-09-09T07:59:13;24.40;99.90
17956;DHT22;27666;51.498;11.966;2022-09-09T08:02:00;24.40;99.90
17956;DHT22;27666;51.498;11.966;2022-09-09T08:04:47;24.20;99.90
17956;DHT22;27666;51.498;11.966;2022-09-09T08:07:33;24.10;99.90
17956;DHT22;27666;51.498;11.966;2022-09-09T08:10:21;24.10;99.90
17956;DHT22;27666;51.498;11.966;2022-09-09T08:13:08;24.30;99.90
17956;DHT22;27666;51.498;11.966;2022-09-09T08:16:10;24.30;99.90
17956;DHT22;27666;51.498;11.966;2022-09-09T08:18:58;24.50;99.90
17956;DHT22;27666;51.498;11.966;2022-09-09T08:21:45;24.70;99.90
17956;DHT22;27666;51.498;11.966;2022-09-09T08:24:31;24.70;99.90
17956;DHT22;27666;51.498;11.966;2022-09-09T08:27:19;24.90;99.90
17956;DHT22;27666;51.498;11.966;2022-09-09T08:30:06;25.20;99.90
17956;DHT22;27666;51.498;11.966;2022-09-09T08:32:53;25.20;99.90
17956;DHT22;27666;51.498;11.966;2022-09-09T08:35:39;25.30;99.90
17956;DHT22;27666;51.498;11.966;2022-09-09T08:38:35;25.20;99.90
17956;DHT22;27666;51.498;11.966;2022-09-09T08:41:43;25.40;99.90
17956;DHT22;27666;51.498;11.966;2022-09-09T08:44:46;25.20;99.90
17956;DHT22;27666;51.498;11.966;2022-09-09T08:47:39;24.90;99.90
17956;DHT22;27666;51.498;11.966;2022-09-09T08:50:35;24.80;99.90
17956;DHT22;27666;51.498;11.966;2022-09-09T08:53:26;25.00;99.90
17956;DHT22;27666;51.498;11.966;2022-09-09T08:56:18;25.50;99.90
17956;DHT22;27666;51.498;11.966;2022-09-09T08:59:10;25.80;99.90
17956;DHT22;27666;51.498;11.966;2022-09-09T09:02:08;26.10;99.90
17956;DHT22;27666;51.498;11.966;2022-09-09T09:05:14;26.20;99.90
17956;DHT22;27666;51.498;11.966;2022-09-09T09:08:08;26.30;99.90
17956;DHT22;27666;51.498;11.966;2022-09-09T09:10:59;26.40;99.90
17956;DHT22;27666;51.498;11.966;2022-09-09T09:13:52;26.40;99.90
17956;DHT22;27666;51.498;11.966;2022-09-09T09:16:48;26.60;99.90
17956;DHT22;27666;51.498;11.966;2022-09-09T09:19:39;26.80;99.90
17956;DHT22;27666;51.498;11.966;2022-09-09T09:22:32;26.90;99.90
17956;DHT22;27666;51.498;11.966;2022-09-09T09:25:22;26.80;99.90
17956;DHT22;27666;51.498;11.966;2022-09-09T09:28:15;26.80;99.90
17956;DHT22;27666;51.498;11.966;2022-09-09T09:31:05;26.90;99.90
17956;DHT22;27666;51.498;11.966;2022-09-09T09:33:53;27.00;99.90
17956;DHT22;27666;51.498;11.966;2022-09-09T09:36:42;27.00;99.90
17956;DHT22;27666;51.498;11.966;2022-09-09T09:39:31;27.10;99.90
17956;DHT22;27666;51.498;11.966;2022-09-09T09:42:49;27.20;99.90
17956;DHT22;27666;51.498;11.966;2022-09-09T09:45:41;27.20;99.90
17956;DHT22;27666;51.498;11.966;2022-09-09T09:48:56;27.40;99.90
17956;DHT22;27666;51.498;11.966;2022-09-09T09:51:44;27.30;99.90
17956;DHT22;27666;51.498;11.966;2022-09-09T09:54:34;27.10;99.90
17956;DHT22;27666;51.498;11.966;2022-09-09T09:57:26;27.20;99.90
17956;DHT22;27666;51.498;11.966;2022-09-09T10:00:16;27.30;99.90
17956;DHT22;27666;51.498;11.966;2022-09-09T10:03:14;27.60;99.90
17956;DHT22;27666;51.498;11.966;2022-09-09T10:06:06;27.80;99.90
17956;DHT22;27666;51.498;11.966;2022-09-09T10:08:53;27.70;99.90
17956;DHT22;27666;51.498;11.966;2022-09-09T10:11:44;27.30;99.90
17956;DHT22;27666;51.498;11.966;2022-09-09T10:14:38;27.00;99.90
17956;DHT22;27666;51.498;11.966;2022-09-09T10:17:32;26.80;99.90
17956;DHT22;27666;51.498;11.966;2022-09-09T10:20:30;27.00;99.90
17956;DHT22;27666;51.498;11.966;2022-09-09T10:23:28;27.40;99.90
17956;DHT22;27666;51.498;11.966;2022-09-09T10:26:29;27.80;99.90
17956;DHT22;27666;51.498;11.966;2022-09-09T10:29:39;28.10;99.70
17956;DHT22;27666;51.498;11.966;2022-09-09T10:32:41;28.20;99.10
17956;DHT22;27666;51.498;11.966;2022-09-09T10:35:33;28.20;99.00
17956;DHT22;27666;51.498;11.966;2022-09-09T10:38:24;27.80;98.80
17956;DHT22;27666;51.498;11.966;2022-09-09T10:41:18;27.30;98.80
17956;DHT22;27666;51.498;11.966;2022-09-09T10:44:21;26.80;99.10
17956;DHT22;27666;51.498;11.966;2022-09-09T10:53:58;25.50;99.90
17956;DHT22;27666;51.498;11.966;2022-09-09T10:56:52;25.30;99.90
17956;DHT22;27666;51.498;11.966;2022-09-09T10:59:47;24.90;99.90
17956;DHT22;27666;51.498;11.966;2022-09-09T11:02:34;24.70;99.90
17956;DHT22;27666;51.498;11.966;2022-09-09T11:05:24;24.60;99.90
17956;DHT22;27666;51.498;11.966;2022-09-09T11:08:17;24.40;99.90
17956;DHT22;27666;51.498;11.966;2022-09-09T11:11:08;24.50;99.90
17956;DHT22;27666;51.498;11.966;2022-09-09T11:14:01;24.70;99.90
17956;DHT22;27666;51.498;11.966;2022-09-09T11:16:55;24.90;99.90
17956;DHT22;27666;51.498;11.966;2022-09-09T11:19:44;25.00;99.90
17956;DHT22;27666;51.498;11.966;2022-09-09T11:22:33;24.90;99.90
17956;DHT22;27666;51.498;11.966;2022-09-09T11:25:25;24.90;99.90
17956;DHT22;27666;51.498;11.966;2022-09-09T11:28:25;24.80;99.90
17956;DHT22;27666;51.498;11.966;2022-09-09T11:31:28;24.60;99.90
17956;DHT22;27666;51.498;11.966;2022-09-09T11:34:36;24.50;99.90
17956;DHT22;27666;51.498;11.966;2022-09-09T11:37:39;24.40;99.90
17956;DHT22;27666;51.498;11.966;2022-09-09T11:40:30;24.30;99.90
17956;DHT22;27666;51.498;11.966;2022-09-09T11:43:23;24.10;99.90
17956;DHT22;27666;51.498;11.966;2022-09-09T11:46:10;24.00;99.90
17956;DHT22;27666;51.498;11.966;2022-09-09T11:49:00;24.00;99.90
17956;DHT22;27666;51.498;11.966;2022-09-09T11:51:49;24.10;99.90
17956;DHT22;27666;51.498;11.966;2022-09-09T11:54:46;24.00;99.90
17956;DHT22;27666;51.498;11.966;2022-09-09T11:57:35;24.00;99.90
17956;DHT22;27666;51.498;11.966;2022-09-09T12:00:34;24.30;99.90
17956;DHT22;27666;51.498;11.966;2022-09-09T12:03:41;24.60;99.90
17956;DHT22;27666;51.498;11.966;2022-09-09T12:06:31;24.70;99.90
17956;DHT22;27666;51.498;11.966;2022-09-09T12:09:24;24.70;99.90
17956;DHT22;27666;51.498;11.966;2022-09-09T12:12:27;24.70;99.90
17956;DHT22;27666;51.498;11.966;2022-09-09T12:15:28;24.60;99.90
17956;DHT22;27666;51.498;11.966;2022-09-09T12:18:16;24.60;99.90
17956;DHT22;27666;51.498;11.966;2022-09-09T12:21:25;24.50;99.90
17956;DHT22;27666;51.498;11.966;2022-09-09T12:24:22;24.50;99.90
17956;DHT22;27666;51.498;11.966;2022-09-09T12:27:15;24.40;99.90
17956;DHT22;27666;51.498;11.966;2022-09-09T12:30:09;24.30;99.90
17956;DHT22;27666;51.498;11.966;2022-09-09T12:33:01;24.20;99.90
17956;DHT22;27666;51.498;11.966;2022-09-09T12:35:51;24.00;99.90
17956;DHT22;27666;51.498;11.966;2022-09-09T12:38:40;23.90;99.90
17956;DHT22;27666;51.498;11.966;2022-09-09T12:41:28;23.80;99.90
17956;DHT22;27666;51.498;11.966;2022-09-09T12:44:15;23.70;99.90
17956;DHT22;27666;51.498;11.966;2022-09-09T12:47:03;23.80;99.90
17956;DHT22;27666;51.498;11.966;2022-09-09T12:49:50;23.70;99.90
17956;DHT22;27666;51.498;11.966;2022-09-09T12:52:37;23.70;99.90
17956;DHT22;27666;51.498;11.966;2022-09-09T12:55:28;23.80;99.90
17956;DHT22;27666;51.498;11.966;2022-09-09T12:58:19;23.80;99.90
17956;DHT22;27666;51.498;11.966;2022-09-09T13:01:17;23.90;99.90
17956;DHT22;27666;51.498;11.966;2022-09-09T13:04:19;23.90;99.90
17956;DHT22;27666;51.498;11.966;2022-09-09T13:07:07;23.90;99.90
17956;DHT22;27666;51.498;11.966;2022-09-09T13:09:57;24.00;99.90
17956;DHT22;27666;51.498;11.966;2022-09-09T13:12:43;24.10;99.90
17956;DHT22;27666;51.498;11.966;2022-09-09T13:15:31;24.30;99.90
17956;DHT22;27666;51.498;11.966;2022-09-09T13:18:21;24.40;99.90
17956;DHT22;27666;51.498;11.966;2022-09-09T13:21:08;24.50;99.90
17956;DHT22;27666;51.498;11.966;2022-09-09T13:23:54;24.50;99.90
17956;DHT22;27666;51.498;11.966;2022-09-09T13:26:41;24.30;99.60
17956;DHT22;27666;51.498;11.966;2022-09-09T13:29:28;24.40;99.90
17956;DHT22;27666;51.498;11.966;2022-09-09T13:32:17;24.20;99.90
17956;DHT22;27666;51.498;11.966;2022-09-09T13:35:22;24.10;99.90
17956;DHT22;27666;51.498;11.966;2022-09-09T13:38:09;24.00;99.90
17956;DHT22;27666;51.498;11.966;2022-09-09T13:40:57;23.90;99.90
17956;DHT22;27666;51.498;11.966;2022-09-09T13:43:45;24.00;99.90
17956;DHT22;27666;51.498;11.966;2022-09-09T13:46:34;23.80;99.90
17956;DHT22;27666;51.498;11.966;2022-09-09T13:49:23;23.70;99.90
17956;DHT22;27666;51.498;11.966;2022-09-09T13:52:11;23.70;99.90
17956;DHT22;27666;51.498;11.966;2022-09-09T13:54:58;23.50;99.90
17956;DHT22;27666;51.498;11.966;2022-09-09T13:57:52;23.40;99.90
17956;DHT22;27666;51.498;11.966;2022-09-09T14:00:39;23.40;99.90
17956;DHT22;27666;51.498;11.966;2022-09-09T14:03:25;23.40;99.90
17956;DHT22;27666;51.498;11.966;2022-09-09T14:06:13;23.50;99.90
17956;DHT22;27666;51.498;11.966;2022-09-09T14:09:00;23.60;99.90
17956;DHT22;27666;51.498;11.966;2022-09-09T14:11:46;23.80;99.90
17956;DHT22;27666;51.498;11.966;2022-09-09T14:14:33;23.80;99.90
17956;DHT22;27666;51.498;11.966;2022-09-09T14:17:20;23.80;99.90
17956;DHT22;27666;51.498;11.966;2022-09-09T14:20:08;23.90;99.90
17956;DHT22;27666;51.498;11.966;2022-09-09T14:22:56;23.90;99.90
17956;DHT22;27666;51.498;11.966;2022-09-09T14:25:48;23.90;99.90
17956;DHT22;27666;51.498;11.966;2022-09-09T14:28:35;23.80;99.90
17956;DHT22;27666;51.498;11.966;2022-09-09T14:31:39;23.80;99.90
17956;DHT22;27666;51.498;11.966;2022-09-09T14:34:25;23.70;99.60
17956;DHT22;27666;51.498;11.966;2022-09-09T14:37:12;23.50;98.40
17956;DHT22;27666;51.498;11.966;2022-09-09T14:39:59;23.50;98.20
17956;DHT22;27666;51.498;11.966;2022-09-09T14:42:46;23.40;98.20
17956;DHT22;27666;51.498;11.966;2022-09-09T14:45:33;23.40;97.30
17956;DHT22;27666;51.498;11.966;2022-09-09T14:51:09;23.30;96.40
17956;DHT22;27666;51.498;11.966;2022-09-09T14:53:59;23.30;96.50
17956;DHT22;27666;51.498;11.966;2022-09-09T14:56:47;23.20;96.60
17956;DHT22;27666;51.498;11.966;2022-09-09T14:59:34;23.10;97.00
17956;DHT22;27666;51.498;11.966;2022-09-09T15:02:20;23.10;96.80
17956;DHT22;27666;51.498;11.966;2022-09-09T15:05:07;23.10;96.50
17956;DHT22;27666;51.498;11.966;2022-09-09T15:07:54;23.00;96.70
17956;DHT22;27666;51.498;11.966;2022-09-09T15:10:41;23.10;96.60
17956;DHT22;27666;51.498;11.966;2022-09-09T15:13:31;23.00;96.60
17956;DHT22;27666;51.498;11.966;2022-09-09T15:16:19;22.80;96.50
17956;DHT22;27666;51.498;11.966;2022-09-09T15:19:06;22.90;97.10
17956;DHT22;27666;51.498;11.966;2022-09-09T15:21:54;22.80;96.60
17956;DHT22;27666;51.498;11.966;2022-09-09T15:24:40;22.80;97.20
17956;DHT22;27666;51.498;11.966;2022-09-09T15:27:27;22.80;97.30
17956;DHT22;27666;51.498;11.966;2022-09-09T15:30:15;22.80;97.60
17956;DHT22;27666;51.498;11.966;2022-09-09T15:33:07;22.80;97.70
17956;DHT22;27666;51.498;11.966;2022-09-09T15:35:57;22.90;97.60
17956;DHT22;27666;51.498;11.966;2022-09-09T15:38:43;22.90;97.90
17956;DHT22;27666;51.498;11.966;2022-09-09T15:41:30;23.00;98.20
17956;DHT22;27666;51.498;11.966;2022-09-09T15:44:18;23.10;98.40
17956;DHT22;27666;51.498;11.966;2022-09-09T15:47:06;23.20;98.40
17956;DHT22;27666;51.498;11.966;2022-09-09T15:49:52;23.10;98.40
17956;DHT22;27666;51.498;11.966;2022-09-09T15:52:39;23.20;98.60
17956;DHT22;27666;51.498;11.966;2022-09-09T15:55:25;23.10;98.70
17956;DHT22;27666;51.498;11.966;2022-09-09T15:58:11;23.20;98.30
17956;DHT22;27666;51.498;11.966;2022-09-09T16:01:02;23.30;98.30
17956;DHT22;27666;51.498;11.966;2022-09-09T16:03:50;23.40;98.50
17956;DHT22;27666;51.498;11.966;2022-09-09T16:06:37;23.30;97.80
17956;DHT22;27666;51.498;11.966;2022-09-09T16:09:24;23.20;98.00
17956;DHT22;27666;51.498;11.966;2022-09-09T16:12:11;23.10;97.80
17956;DHT22;27666;51.498;11.966;2022-09-09T16:14:58;22.90;98.10
17956;DHT22;27666;51.498;11.966;2022-09-09T16:17:44;22.80;98.30
17956;DHT22;27666;51.498;11.966;2022-09-09T16:20:32;22.60;98.90
17956;DHT22;27666;51.498;11.966;2022-09-09T16:23:19;22.40;99.50
17956;DHT22;27666;51.498;11.966;2022-09-09T16:26:05;22.30;99.90
17956;DHT22;27666;51.498;11.966;2022-09-09T16:28:52;22.30;99.90
17956;DHT22;27666;51.498;11.966;2022-09-09T16:31:39;22.20;99.50
17956;DHT22;27666;51.498;11.966;2022-09-09T16:34:26;22.20;99.50
17956;DHT22;27666;51.498;11.966;2022-09-09T16:37:14;22.10;99.10
17956;DHT22;27666;51.498;11.966;2022-09-09T16:40:03;21.90;99.20
17956;DHT22;27666;51.498;11.966;2022-09-09T16:42:50;21.90;99.20
17956;DHT22;27666;51.498;11.966;2022-09-09T16:45:41;21.80;99.20
17956;DHT22;27666;51.498;11.966;2022-09-09T16:48:31;21.70;99.40
17956;DHT22;27666;51.498;11.966;2022-09-09T16:51:20;21.70;99.50
17956;DHT22;27666;51.498;11.966;2022-09-09T16:54:09;21.70;99.70
17956;DHT22;27666;51.498;11.966;2022-09-09T16:56:56;21.60;99.60
17956;DHT22;27666;51.498;11.966;2022-09-09T16:59:43;21.50;99.90
17956;DHT22;27666;51.498;11.966;2022-09-09T17:02:29;21.50;99.90
17956;DHT22;27666;51.498;11.966;2022-09-09T17:05:16;21.50;99.90
17956;DHT22;27666;51.498;11.966;2022-09-09T17:08:03;21.40;99.90
17956;DHT22;27666;51.498;11.966;2022-09-09T17:10:51;21.30;99.90
17956;DHT22;27666;51.498;11.966;2022-09-09T17:13:38;21.30;99.90
17956;DHT22;27666;51.498;11.966;2022-09-09T17:16:26;21.30;99.90
17956;DHT22;27666;51.498;11.966;2022-09-09T17:19:13;21.30;99.90
17956;DHT22;27666;51.498;11.966;2022-09-09T17:22:00;21.10;99.90
17956;DHT22;27666;51.498;11.966;2022-09-09T17:25:02;21.00;99.90
17956;DHT22;27666;51.498;11.966;2022-09-09T17:27:50;20.90;99.90
17956;DHT22;27666;51.498;11.966;2022-09-09T17:30:38;20.80;99.90
17956;DHT22;27666;51.498;11.966;2022-09-09T17:33:25;20.70;99.90
17956;DHT22;27666;51.498;11.966;2022-09-09T17:36:15;20.70;99.90
17956;DHT22;27666;51.498;11.966;2022-09-09T17:39:02;20.60;99.90
17956;DHT22;27666;51.498;11.966;2022-09-09T17:41:49;20.70;99.90
17956;DHT22;27666;51.498;11.966;2022-09-09T17:44:37;20.50;99.90
17956;DHT22;27666;51.498;11.966;2022-09-09T17:47:23;20.40;99.90